Time;durP1;ratioP1;P1;durP2;ratioP2;P2;SDS_P1;SDS_P2;PMS_P1;PMS_P2;Temp;Humidity;BMP_temperature;BMP_pressure;BME280_temperature;BME280_humidity;BME280_pressure;Samples;Min_cycle;Max_cycle;Signal;HPM_P1;HPM_P2
2024/04/02 00:01:02;;;;;;;0.50;0.50;;;;;;;;;;6039566;23;20172;-82
2024/04/02 00:03:29;;;;;;;0.60;0.60;;;;;;;;;;6063342;23;20196;-82
2024/04/02 00:06:01;;;;;;;0.60;0.50;;;;;;;;;;6063735;23;20322;-82
2024/04/02 00:08:31;;;;;;;0.50;0.50;;;;;;;;;;6040542;23;20260;-81
2024/04/02 00:11:01;;;;;;;0.60;0.60;;;;;;;;;;6039116;23;20173;-84
2024/04/02 00:13:27;;;;;;;0.80;0.70;;;;;;;;;;6063159;23;20165;-81
2024/04/02 00:15:53;;;;;;;0.70;0.70;;;;;;;;;;6038857;23;20181;-81
2024/04/02 00:18:19;;;;;;;0.50;0.50;;;;;;;;;;6062808;23;20177;-81
2024/04/02 00:20:45;;;;;;;1.53;0.60;;;;;;;;;;6063155;23;20682;-83
2024/04/02 00:23:12;;;;;;;0.60;0.60;;;;;;;;;;6062666;23;20656;-82
2024/04/02 00:25:38;;;;;;;0.60;0.50;;;;;;;;;;6038893;23;20205;-82
2024/04/02 00:28:05;;;;;;;0.43;0.43;;;;;;;;;;6015008;23;20387;-82
2024/04/02 00:30:31;;;;;;;0.40;0.40;;;;;;;;;;6038763;23;20176;-82
2024/04/02 00:32:58;;;;;;;0.80;0.53;;;;;;;;;;6062363;23;20215;-80
2024/04/02 00:35:26;;;;;;;0.50;0.50;;;;;;;;;;6062353;23;20209;-82
2024/04/02 00:37:53;;;;;;;0.53;0.50;;;;;;;;;;6038714;23;20173;-80
2024/04/02 00:40:19;;;;;;;0.30;0.30;;;;;;;;;;6062533;23;20196;-81
2024/04/02 00:42:49;;;;;;;0.50;0.50;;;;;;;;;;6039474;23;20260;-81
2024/04/02 00:45:18;;;;;;;0.57;0.57;;;;;;;;;;6038951;23;20655;-81
2024/04/02 00:47:46;;;;;;;0.50;0.50;;;;;;;;;;6014948;23;20208;-82
2024/04/02 00:50:15;;;;;;;0.40;0.40;;;;;;;;;;6062775;23;20398;-81
2024/04/02 00:52:42;;;;;;;0.40;0.40;;;;;;;;;;6014858;23;20613;-80
2024/04/02 00:55:11;;;;;;;0.40;0.40;;;;;;;;;;6038578;23;20196;-80
2024/04/02 00:57:39;;;;;;;0.40;0.40;;;;;;;;;;6062648;23;20188;-81
2024/04/02 01:00:06;;;;;;;0.40;0.40;;;;;;;;;;6062598;23;20257;-81
2024/04/02 01:02:37;;;;;;;0.60;0.40;;;;;;;;;;6062066;23;20194;-82
2024/04/02 01:05:08;;;;;;;0.30;0.30;;;;;;;;;;6039128;23;20168;-80
2024/04/02 01:07:35;;;;;;;0.37;0.37;;;;;;;;;;6038749;23;20271;-81
2024/04/02 01:10:02;;;;;;;0.30;0.30;;;;;;;;;;6038778;23;20710;-81
2024/04/02 01:12:33;;;;;;;0.40;0.40;;;;;;;;;;6063010;23;20160;-83
2024/04/02 01:14:59;;;;;;;0.30;0.30;;;;;;;;;;6015411;23;20624;-79
2024/04/02 01:17:25;;;;;;;0.60;0.40;;;;;;;;;;6038716;23;20208;-81
2024/04/02 01:19:51;;;;;;;0.37;0.37;;;;;;;;;;6015406;23;20623;-81
2024/04/02 01:22:17;;;;;;;0.73;0.40;;;;;;;;;;6038951;23;20617;-81
2024/04/02 01:24:45;;;;;;;0.30;0.30;;;;;;;;;;6062437;23;20272;-80
2024/04/02 01:27:12;;;;;;;0.20;0.20;;;;;;;;;;6038970;23;20161;-80
2024/04/02 01:29:41;;;;;;;0.33;0.30;;;;;;;;;;6038446;23;20173;-80
2024/04/02 01:32:07;;;;;;;0.20;0.20;;;;;;;;;;6064307;23;20199;-81
2024/04/02 01:34:33;;;;;;;0.40;0.30;;;;;;;;;;6040751;23;20173;-81
2024/04/02 01:36:59;;;;;;;0.40;0.40;;;;;;;;;;6064385;23;20785;-82
2024/04/02 01:39:31;;;;;;;0.30;0.30;;;;;;;;;;6040600;23;20251;-81
2024/04/02 01:41:58;;;;;;;0.97;0.40;;;;;;;;;;6064619;23;20588;-82
2024/04/02 01:44:25;;;;;;;0.30;0.30;;;;;;;;;;6088292;23;20211;-81
2024/04/02 01:46:52;;;;;;;0.50;0.30;;;;;;;;;;6016891;23;20193;-81
2024/04/02 01:49:17;;;;;;;1.30;0.37;;;;;;;;;;6064324;23;20637;-82
2024/04/02 01:51:45;;;;;;;0.40;0.40;;;;;;;;;;6064322;23;20177;-82
2024/04/02 01:54:11;;;;;;;0.40;0.40;;;;;;;;;;6040624;23;20169;-81
2024/04/02 01:56:38;;;;;;;0.80;0.40;;;;;;;;;;6064418;23;20260;-80
2024/04/02 01:59:04;;;;;;;0.37;0.30;;;;;;;;;;6063985;23;20536;-82
2024/04/02 02:01:30;;;;;;;0.80;0.47;;;;;;;;;;6039644;23;20204;-82
2024/04/02 02:03:57;;;;;;;0.43;0.43;;;;;;;;;;6039846;23;20660;-81
2024/04/02 02:06:25;;;;;;;0.20;0.20;;;;;;;;;;6064311;23;20176;-82
2024/04/02 02:08:51;;;;;;;0.60;0.40;;;;;;;;;;6039740;23;20616;-81
2024/04/02 02:11:18;;;;;;;0.30;0.30;;;;;;;;;;6064014;23;20169;-81
2024/04/02 02:13:50;;;;;;;0.37;0.30;;;;;;;;;;6017787;23;20195;-81
2024/04/02 02:16:19;;;;;;;0.40;0.40;;;;;;;;;;6064312;23;20192;-83
2024/04/02 02:18:45;;;;;;;0.30;0.30;;;;;;;;;;6040672;23;20199;-81
2024/04/02 02:21:13;;;;;;;0.40;0.20;;;;;;;;;;6040202;23;20201;-82
2024/04/02 02:23:45;;;;;;;0.33;0.33;;;;;;;;;;6063843;23;20464;-81
2024/04/02 02:26:11;;;;;;;0.33;0.33;;;;;;;;;;6040272;23;20242;-81
2024/04/02 02:28:38;;;;;;;0.43;0.40;;;;;;;;;;6040085;23;20204;-80
2024/04/02 02:31:04;;;;;;;0.43;0.40;;;;;;;;;;6039851;23;20228;-80
2024/04/02 02:33:30;;;;;;;0.43;0.30;;;;;;;;;;6063799;23;20168;-81
2024/04/02 02:35:56;;;;;;;0.50;0.43;;;;;;;;;;6039781;23;20205;-82
2024/04/02 02:38:22;;;;;;;0.73;0.40;;;;;;;;;;6016370;23;20172;-81
2024/04/02 02:40:48;;;;;;;0.67;0.67;;;;;;;;;;6039420;23;20204;-82
2024/04/02 02:43:14;;;;;;;1.33;0.50;;;;;;;;;;6039551;23;20692;-81
2024/04/02 02:45:50;;;;;;;0.50;0.43;;;;;;;;;;6039725;23;20223;-81
2024/04/02 02:48:16;;;;;;;0.40;0.40;;;;;;;;;;6063489;23;20177;-81
2024/04/02 02:50:42;;;;;;;0.50;0.40;;;;;;;;;;6039724;23;20198;-80
2024/04/02 02:53:08;;;;;;;0.43;0.43;;;;;;;;;;6063484;23;20161;-80
2024/04/02 02:55:36;;;;;;;0.27;0.27;;;;;;;;;;6039507;23;20173;-81
2024/04/02 02:58:02;;;;;;;0.40;0.40;;;;;;;;;;6015676;23;20171;-82
2024/04/02 03:00:28;;;;;;;0.50;0.40;;;;;;;;;;6063339;23;20169;-81
2024/04/02 03:02:54;;;;;;;0.70;0.40;;;;;;;;;;6063048;23;20247;-80
2024/04/02 03:05:20;;;;;;;0.87;0.40;;;;;;;;;;6015444;23;20180;-81
2024/04/02 03:07:47;;;;;;;1.00;0.50;;;;;;;;;;6063313;23;20169;-80
2024/04/02 03:10:13;;;;;;;0.53;0.50;;;;;;;;;;6063264;23;20173;-80
2024/04/02 03:12:41;;;;;;;0.50;0.50;;;;;;;;;;6039440;23;20173;-80
2024/04/02 03:15:08;;;;;;;0.40;0.40;;;;;;;;;;6063058;23;20775;-80
2024/04/02 03:17:36;;;;;;;0.53;0.47;;;;;;;;;;6086666;23;20200;-82
2024/04/02 03:20:02;;;;;;;0.60;0.60;;;;;;;;;;6063079;23;20169;-82
2024/04/02 03:22:29;;;;;;;0.50;0.47;;;;;;;;;;6039107;23;20204;-81
2024/04/02 03:24:56;;;;;;;0.83;0.50;;;;;;;;;;6039229;23;20643;-81
2024/04/02 03:27:22;;;;;;;0.50;0.47;;;;;;;;;;6063023;23;20197;-82
2024/04/02 03:29:48;;;;;;;0.90;0.80;;;;;;;;;;6015672;23;20256;-80
2024/04/02 03:32:14;;;;;;;0.60;0.50;;;;;;;;;;6063155;23;20180;-80
2024/04/02 03:34:41;;;;;;;0.50;0.50;;;;;;;;;;6039524;23;20177;-81
2024/04/02 03:37:08;;;;;;;0.53;0.50;;;;;;;;;;6039074;23;20670;-82
2024/04/02 03:39:35;;;;;;;0.57;0.57;;;;;;;;;;6063581;23;20279;-80
2024/04/02 03:42:01;;;;;;;0.50;0.50;;;;;;;;;;6062626;23;20256;-80
2024/04/02 03:44:29;;;;;;;2.17;0.60;;;;;;;;;;6062532;23;20192;-82
2024/04/02 03:46:59;;;;;;;0.50;0.50;;;;;;;;;;6038601;23;20723;-79
2024/04/02 03:49:25;;;;;;;0.50;0.50;;;;;;;;;;6062632;23;20171;-80
2024/04/02 03:51:52;;;;;;;0.40;0.40;;;;;;;;;;6062250;23;20164;-80
2024/04/02 03:54:18;;;;;;;0.80;0.53;;;;;;;;;;6062804;23;20173;-82
2024/04/02 03:56:44;;;;;;;0.60;0.60;;;;;;;;;;6039350;23;20208;-82
2024/04/02 03:59:10;;;;;;;0.40;0.40;;;;;;;;;;6015808;23;20176;-83
2024/04/02 04:01:37;;;;;;;0.50;0.50;;;;;;;;;;6064027;23;20165;-84
2024/04/02 04:04:03;;;;;;;0.73;0.70;;;;;;;;;;6039430;23;20203;-81
2024/04/02 04:06:29;;;;;;;0.53;0.53;;;;;;;;;;6017013;23;20260;-81
2024/04/02 04:08:56;;;;;;;0.83;0.40;;;;;;;;;;6063316;23;20210;-82
2024/04/02 04:11:22;;;;;;;0.57;0.50;;;;;;;;;;6062641;23;20181;-82
2024/04/02 04:13:48;;;;;;;0.60;0.50;;;;;;;;;;6014926;23;20286;-82
2024/04/02 04:16:16;;;;;;;0.50;0.50;;;;;;;;;;6062615;23;20655;-83
2024/04/02 04:18:42;;;;;;;0.50;0.43;;;;;;;;;;6062201;23;20173;-83
2024/04/02 04:21:15;;;;;;;0.50;0.50;;;;;;;;;;6016714;23;20183;-82
2024/04/02 04:23:41;;;;;;;0.50;0.50;;;;;;;;;;6038912;23;20313;-81
2024/04/02 04:26:07;;;;;;;0.60;0.60;;;;;;;;;;6038955;23;20183;-81
2024/04/02 04:28:35;;;;;;;0.87;0.70;;;;;;;;;;6015539;23;20196;-84
2024/04/02 04:31:02;;;;;;;0.70;0.70;;;;;;;;;;6062956;23;20213;-81
2024/04/02 04:33:33;;;;;;;1.60;0.63;;;;;;;;;;6039189;23;20215;-81
2024/04/02 04:36:00;;;;;;;0.67;0.67;;;;;;;;;;6015399;23;20212;-82
2024/04/02 04:38:28;;;;;;;0.60;0.60;;;;;;;;;;6039111;23;20220;-83
2024/04/02 04:40:54;;;;;;;0.90;0.60;;;;;;;;;;6015165;23;20172;-82
2024/04/02 04:43:20;;;;;;;0.53;0.50;;;;;;;;;;6014960;23;20285;-83
2024/04/02 04:46:03;;;;;;;0.70;0.60;;;;;;;;;;6015268;23;20271;-83
2024/04/02 04:48:30;;;;;;;0.50;0.50;;;;;;;;;;6015684;23;20711;-81
2024/04/02 04:50:56;;;;;;;0.77;0.60;;;;;;;;;;6015312;23;20169;-82
2024/04/02 04:53:25;;;;;;;0.90;0.70;;;;;;;;;;6062825;23;20176;-82
2024/04/02 04:55:56;;;;;;;0.60;0.60;;;;;;;;;;6038497;23;20181;-82
2024/04/02 04:58:23;;;;;;;0.40;0.40;;;;;;;;;;6015542;23;20234;-82
2024/04/02 05:00:49;;;;;;;0.63;0.40;;;;;;;;;;6015606;23;20165;-83
2024/04/02 05:03:15;;;;;;;0.63;0.40;;;;;;;;;;6015294;23;20260;-83
2024/04/02 05:05:42;;;;;;;0.40;0.40;;;;;;;;;;6016118;23;20212;-83
2024/04/02 05:08:21;;;;;;;0.60;0.40;;;;;;;;;;6039646;23;20165;-81
2024/04/02 05:10:48;;;;;;;0.40;0.40;;;;;;;;;;6039211;23;20173;-82
2024/04/02 05:13:17;;;;;;;0.60;0.50;;;;;;;;;;6039590;23;20180;-83
2024/04/02 05:15:44;;;;;;;0.93;0.50;;;;;;;;;;6039405;23;20169;-82
2024/04/02 05:18:10;;;;;;;0.93;0.40;;;;;;;;;;6015341;23;20181;-83
2024/04/02 05:20:36;;;;;;;1.13;0.40;;;;;;;;;;6015320;23;20175;-83
2024/04/02 05:23:02;;;;;;;0.87;0.40;;;;;;;;;;6015447;23;20173;-83
2024/04/02 05:25:29;;;;;;;0.60;0.40;;;;;;;;;;6039708;23;20180;-82
2024/04/02 05:27:59;;;;;;;0.47;0.37;;;;;;;;;;6039453;23;20261;-82
2024/04/02 05:30:29;;;;;;;1.90;0.50;;;;;;;;;;6016580;23;20613;-84
2024/04/02 05:32:55;;;;;;;0.83;0.30;;;;;;;;;;6039011;23;20220;-83
2024/04/02 05:35:21;;;;;;;0.87;0.50;;;;;;;;;;6015973;23;20165;-83
2024/04/02 05:37:54;;;;;;;0.60;0.33;;;;;;;;;;6019845;23;20172;-82
2024/04/02 05:40:21;;;;;;;1.50;0.40;;;;;;;;;;6043918;23;20620;-82
2024/04/02 05:42:53;;;;;;;0.50;0.50;;;;;;;;;;6020204;23;20247;-83
2024/04/02 05:45:19;;;;;;;0.60;0.30;;;;;;;;;;6043798;23;20327;-82
2024/04/02 05:47:46;;;;;;;0.33;0.33;;;;;;;;;;6067590;23;20255;-82
2024/04/02 05:50:15;;;;;;;0.60;0.40;;;;;;;;;;6020154;23;20172;-82
2024/04/02 05:52:41;;;;;;;0.37;0.30;;;;;;;;;;6020172;23;20169;-84
2024/04/02 05:55:09;;;;;;;0.30;0.30;;;;;;;;;;6020279;23;20172;-83
2024/04/02 05:57:36;;;;;;;1.90;0.30;;;;;;;;;;6020386;23;20259;-83
2024/04/02 06:00:05;;;;;;;0.60;0.40;;;;;;;;;;6020855;23;20172;-83
2024/04/02 06:02:37;;;;;;;1.60;0.30;;;;;;;;;;6046628;23;20160;-86
2024/04/02 06:05:04;;;;;;;0.40;0.30;;;;;;;;;;6044143;23;20239;-83
2024/04/02 06:07:34;;;;;;;0.63;0.40;;;;;;;;;;6021808;23;20767;-85
2024/04/02 06:10:00;;;;;;;0.40;0.40;;;;;;;;;;6044640;23;20527;-83
2024/04/02 06:12:27;;;;;;;0.50;0.30;;;;;;;;;;6067907;23;20252;-83
2024/04/02 06:14:54;;;;;;;0.60;0.40;;;;;;;;;;6020809;23;20172;-83
2024/04/02 06:17:20;;;;;;;0.50;0.50;;;;;;;;;;6021724;23;20860;-83
2024/04/02 06:19:46;;;;;;;0.30;0.30;;;;;;;;;;6046174;23;20165;-85
2024/04/02 06:22:12;;;;;;;0.33;0.30;;;;;;;;;;6022368;23;20223;-82
2024/04/02 06:24:38;;;;;;;0.50;0.30;;;;;;;;;;6022455;23;20196;-83
2024/04/02 06:27:05;;;;;;;0.50;0.40;;;;;;;;;;6022005;23;20168;-83
2024/04/02 06:29:33;;;;;;;0.33;0.33;;;;;;;;;;6045923;23;20735;-85
2024/04/02 06:31:59;;;;;;;1.23;0.50;;;;;;;;;;6045928;23;20632;-84
2024/04/02 06:34:26;;;;;;;2.13;0.47;;;;;;;;;;6022656;23;20176;-83
2024/04/02 06:36:56;;;;;;;0.37;0.37;;;;;;;;;;6021889;23;21093;-82
2024/04/02 06:39:22;;;;;;;0.30;0.30;;;;;;;;;;6046105;23;20172;-81
2024/04/02 06:41:48;;;;;;;0.30;0.30;;;;;;;;;;6046059;23;20202;-83
2024/04/02 06:44:14;;;;;;;1.70;0.40;;;;;;;;;;6022224;23;20211;-84
2024/04/02 06:46:40;;;;;;;0.63;0.50;;;;;;;;;;6044859;23;20235;-82
2024/04/02 06:49:06;;;;;;;0.97;0.30;;;;;;;;;;6069415;23;20272;-84
2024/04/02 06:51:38;;;;;;;0.30;0.30;;;;;;;;;;6023248;23;20161;-83
2024/04/02 06:54:04;;;;;;;0.57;0.40;;;;;;;;;;6021685;23;20172;-83
2024/04/02 06:56:30;;;;;;;0.60;0.37;;;;;;;;;;6021684;23;20168;-83
2024/04/02 06:58:56;;;;;;;0.33;0.30;;;;;;;;;;6021774;23;20235;-82
2024/04/02 07:01:25;;;;;;;0.40;0.33;;;;;;;;;;6021400;23;20168;-85
2024/04/02 07:03:51;;;;;;;0.83;0.40;;;;;;;;;;6021895;23;20271;-83
2024/04/02 07:06:17;;;;;;;0.40;0.30;;;;;;;;;;6021659;23;20174;-83
2024/04/02 07:08:46;;;;;;;0.47;0.37;;;;;;;;;;6021439;23;20171;-84
2024/04/02 07:11:15;;;;;;;0.57;0.40;;;;;;;;;;6045217;23;20173;-84
2024/04/02 07:13:41;;;;;;;1.23;0.40;;;;;;;;;;6021283;23;20616;-82
2024/04/02 07:16:07;;;;;;;0.40;0.30;;;;;;;;;;6021369;23;20243;-84
2024/04/02 07:18:43;;;;;;;0.77;0.40;;;;;;;;;;6045108;23;20176;-83
2024/04/02 07:21:13;;;;;;;0.30;0.30;;;;;;;;;;6021188;23;20223;-83
2024/04/02 07:23:40;;;;;;;0.20;0.10;;;;;;;;;;6044420;23;20240;-83
2024/04/02 07:26:06;;;;;;;0.67;0.30;;;;;;;;;;6020671;23;20261;-83
2024/04/02 07:28:32;;;;;;;0.87;0.30;;;;;;;;;;6044899;23;20173;-83
2024/04/02 07:30:58;;;;;;;1.60;0.40;;;;;;;;;;6044409;23;20169;-82
2024/04/02 07:33:24;;;;;;;0.97;0.20;;;;;;;;;;6020333;23;20174;-82
2024/04/02 07:35:54;;;;;;;0.80;0.40;;;;;;;;;;6021303;23;20275;-83
2024/04/02 07:38:20;;;;;;;0.87;0.30;;;;;;;;;;6020770;23;20210;-83
2024/04/02 07:40:46;;;;;;;0.33;0.30;;;;;;;;;;6020993;23;20302;-82
2024/04/02 07:43:12;;;;;;;1.70;0.23;;;;;;;;;;6020310;23;20174;-82
2024/04/02 07:45:40;;;;;;;0.30;0.20;;;;;;;;;;6044782;23;22050;-83
2024/04/02 07:48:06;;;;;;;1.63;0.40;;;;;;;;;;6020475;23;20177;-82
2024/04/02 07:50:33;;;;;;;0.30;0.30;;;;;;;;;;6044473;23;20609;-83
2024/04/02 07:52:59;;;;;;;0.80;0.40;;;;;;;;;;6043949;23;20174;-82
2024/04/02 07:55:27;;;;;;;0.33;0.30;;;;;;;;;;6020760;23;20198;-82
2024/04/02 07:57:53;;;;;;;0.53;0.30;;;;;;;;;;6043765;23;20185;-83
2024/04/02 08:00:20;;;;;;;0.70;0.40;;;;;;;;;;6044063;23;20193;-82
2024/04/02 08:02:48;;;;;;;1.47;0.40;;;;;;;;;;6043661;23;20639;-82
2024/04/02 08:05:17;;;;;;;0.37;0.37;;;;;;;;;;6020058;23;20728;-83
2024/04/02 08:07:44;;;;;;;0.40;0.37;;;;;;;;;;6044071;23;20177;-81
2024/04/02 08:10:13;;;;;;;0.33;0.33;;;;;;;;;;6020544;23;20182;-82
2024/04/02 08:12:40;;;;;;;1.23;0.23;;;;;;;;;;6043492;23;20177;-82
2024/04/02 08:15:07;;;;;;;1.07;0.30;;;;;;;;;;6019804;23;20667;-82
2024/04/02 08:17:36;;;;;;;1.63;0.40;;;;;;;;;;6020745;23;20176;-81
2024/04/02 08:20:03;;;;;;;1.00;0.40;;;;;;;;;;6020214;23;20187;-81
2024/04/02 08:22:29;;;;;;;1.07;0.40;;;;;;;;;;6019587;23;20177;-81
2024/04/02 08:24:56;;;;;;;0.33;0.30;;;;;;;;;;6043638;23;20288;-82
2024/04/02 08:27:23;;;;;;;0.97;0.40;;;;;;;;;;6043386;23;20255;-82
2024/04/02 08:29:52;;;;;;;0.33;0.27;;;;;;;;;;6044086;23;20166;-82
2024/04/02 08:32:19;;;;;;;0.40;0.40;;;;;;;;;;6019953;23;20702;-83
2024/04/02 08:34:45;;;;;;;0.40;0.40;;;;;;;;;;6019667;23;20173;-82
2024/04/02 08:37:12;;;;;;;0.47;0.30;;;;;;;;;;6043137;23;20206;-81
2024/04/02 08:39:40;;;;;;;0.60;0.40;;;;;;;;;;6043401;23;20171;-81
2024/04/02 08:42:09;;;;;;;1.37;0.30;;;;;;;;;;6020279;23;20173;-82
2024/04/02 08:44:41;;;;;;;0.40;0.30;;;;;;;;;;6019897;23;20627;-82
2024/04/02 08:47:07;;;;;;;1.23;0.40;;;;;;;;;;6043580;23;20194;-82
2024/04/02 08:49:33;;;;;;;0.80;0.40;;;;;;;;;;6019769;23;20166;-81
2024/04/02 08:52:00;;;;;;;0.70;0.40;;;;;;;;;;6066969;23;20248;-81
2024/04/02 08:54:29;;;;;;;1.23;0.57;;;;;;;;;;6019741;23;20266;-82
2024/04/02 08:56:57;;;;;;;0.50;0.50;;;;;;;;;;6043879;23;20179;-82
2024/04/02 08:59:27;;;;;;;1.03;0.40;;;;;;;;;;6043621;23;20610;-82
2024/04/02 09:01:57;;;;;;;1.27;0.43;;;;;;;;;;6019582;23;20626;-82
2024/04/02 09:04:25;;;;;;;0.33;0.30;;;;;;;;;;6043419;23;20182;-81
2024/04/02 09:06:51;;;;;;;1.63;0.33;;;;;;;;;;6043693;23;20194;-82
2024/04/02 09:09:23;;;;;;;0.57;0.40;;;;;;;;;;6019996;23;20733;-81
2024/04/02 09:11:50;;;;;;;0.87;0.50;;;;;;;;;;6020313;23;20174;-82
2024/04/02 09:14:21;;;;;;;1.90;0.60;;;;;;;;;;6021015;23;20173;-82
2024/04/02 09:16:47;;;;;;;0.70;0.33;;;;;;;;;;6043907;23;20245;-81
2024/04/02 09:19:14;;;;;;;0.77;0.40;;;;;;;;;;6043562;23;20179;-82
2024/04/02 09:21:40;;;;;;;0.70;0.40;;;;;;;;;;6020341;23;20194;-82
2024/04/02 09:24:10;;;;;;;0.50;0.33;;;;;;;;;;6020491;23;20200;-81
2024/04/02 09:26:37;;;;;;;1.10;0.43;;;;;;;;;;6020047;23;20174;-81
2024/04/02 09:29:03;;;;;;;0.50;0.50;;;;;;;;;;6019787;23;20172;-83
2024/04/02 09:31:32;;;;;;;0.50;0.50;;;;;;;;;;6043713;23;20217;-81
2024/04/02 09:34:05;;;;;;;1.53;0.73;;;;;;;;;;6043202;23;20173;-83
2024/04/02 09:36:42;;;;;;;1.53;0.50;;;;;;;;;;6013926;23;20235;-82
2024/04/02 09:39:12;;;;;;;1.07;0.70;;;;;;;;;;6015379;23;20172;-82
2024/04/02 09:41:40;;;;;;;1.27;0.50;;;;;;;;;;6039168;23;20174;-83
2024/04/02 09:44:15;;;;;;;0.60;0.50;;;;;;;;;;6014547;23;20279;-83
2024/04/02 09:46:45;;;;;;;1.33;0.50;;;;;;;;;;6038424;23;20278;-83
2024/04/02 09:49:23;;;;;;;1.60;0.60;;;;;;;;;;6015267;23;20172;-82
2024/04/02 09:51:50;;;;;;;1.23;0.60;;;;;;;;;;6063772;23;20203;-82
2024/04/02 09:54:17;;;;;;;0.87;0.40;;;;;;;;;;6064283;23;20319;-82
2024/04/02 09:56:46;;;;;;;0.40;0.40;;;;;;;;;;6040538;23;20179;-84
2024/04/02 09:59:13;;;;;;;0.70;0.40;;;;;;;;;;6040617;23;20215;-84
2024/04/02 10:01:40;;;;;;;0.60;0.30;;;;;;;;;;6064407;23;20690;-83
2024/04/02 10:04:09;;;;;;;0.50;0.30;;;;;;;;;;6063644;23;20193;-82
2024/04/02 10:06:38;;;;;;;0.57;0.40;;;;;;;;;;6064565;23;20201;-83
2024/04/02 10:09:06;;;;;;;2.20;0.50;;;;;;;;;;6040537;23;20169;-83
2024/04/02 10:11:36;;;;;;;0.97;0.40;;;;;;;;;;6064777;23;20169;-83
2024/04/02 10:14:09;;;;;;;1.13;0.40;;;;;;;;;;6064635;23;20260;-83
2024/04/02 10:16:39;;;;;;;0.60;0.40;;;;;;;;;;6041124;23;20609;-82
2024/04/02 10:19:10;;;;;;;0.53;0.40;;;;;;;;;;6040687;23;20169;-82
2024/04/02 10:21:42;;;;;;;1.83;0.50;;;;;;;;;;6062938;23;20165;-82
2024/04/02 10:24:11;;;;;;;0.40;0.33;;;;;;;;;;6016770;23;20284;-82
2024/04/02 10:26:38;;;;;;;0.70;0.50;;;;;;;;;;6064658;23;20165;-82
2024/04/02 10:29:04;;;;;;;0.57;0.40;;;;;;;;;;6016989;23;20216;-83
2024/04/02 10:31:37;;;;;;;1.07;0.50;;;;;;;;;;6040935;23;20184;-82
2024/04/02 10:34:08;;;;;;;0.57;0.47;;;;;;;;;;6064452;23;20169;-82
2024/04/02 10:36:37;;;;;;;0.67;0.30;;;;;;;;;;6054776;23;20204;-82
2024/04/02 10:39:04;;;;;;;1.53;0.50;;;;;;;;;;6045311;23;20179;-82
2024/04/02 10:41:31;;;;;;;0.73;0.40;;;;;;;;;;6045303;23;20172;-82
2024/04/02 10:43:57;;;;;;;0.50;0.40;;;;;;;;;;6069049;23;20283;-84
2024/04/02 10:46:27;;;;;;;0.60;0.40;;;;;;;;;;6021619;23;20192;-82
2024/04/02 10:49:03;;;;;;;1.30;0.40;;;;;;;;;;6044769;23;20179;-82
2024/04/02 10:51:31;;;;;;;2.47;0.40;;;;;;;;;;6045240;23;20287;-82
2024/04/02 10:53:58;;;;;;;0.93;0.30;;;;;;;;;;6044774;23;20607;-83
2024/04/02 10:56:31;;;;;;;0.53;0.30;;;;;;;;;;6045397;23;20175;-82
2024/04/02 10:59:03;;;;;;;0.60;0.30;;;;;;;;;;6021671;23;20272;-83
2024/04/02 11:01:29;;;;;;;0.40;0.30;;;;;;;;;;6045619;23;20392;-82
2024/04/02 11:03:56;;;;;;;1.00;0.33;;;;;;;;;;6021009;23;20287;-82
2024/04/02 11:06:22;;;;;;;0.30;0.30;;;;;;;;;;6021334;23;20445;-81
2024/04/02 11:08:49;;;;;;;0.40;0.20;;;;;;;;;;6044366;23;20168;-82
2024/04/02 11:11:32;;;;;;;1.13;0.30;;;;;;;;;;6043525;23;20161;-82
2024/04/02 11:14:06;;;;;;;0.43;0.27;;;;;;;;;;6042869;23;20177;-82
2024/04/02 11:16:33;;;;;;;0.20;0.20;;;;;;;;;;6043818;23;20164;-83
2024/04/02 11:18:59;;;;;;;0.50;0.20;;;;;;;;;;6021126;23;20169;-82
2024/04/02 11:21:25;;;;;;;0.20;0.20;;;;;;;;;;6045048;23;20204;-82
2024/04/02 11:26:36;;;;;;;0.33;0.33;;;;;;;;;;6045420;23;20168;-82
2024/04/02 11:29:04;;;;;;;1.47;0.40;;;;;;;;;;6021030;23;20267;-82
2024/04/02 11:31:30;;;;;;;1.83;0.40;;;;;;;;;;6045185;23;20176;-82
2024/04/02 11:33:56;;;;;;;0.30;0.20;;;;;;;;;;6045012;23;20176;-82
2024/04/02 11:36:26;;;;;;;0.70;0.23;;;;;;;;;;6041062;23;20231;-82
2024/04/02 11:38:54;;;;;;;0.33;0.30;;;;;;;;;;6016404;23;20173;-82
2024/04/02 11:41:24;;;;;;;0.40;0.23;;;;;;;;;;6064166;23;20203;-82
2024/04/02 11:43:53;;;;;;;0.40;0.30;;;;;;;;;;6040421;23;20281;-82
2024/04/02 11:46:19;;;;;;;0.40;0.30;;;;;;;;;;6063807;23;20193;-82
2024/04/02 11:48:46;;;;;;;0.87;0.13;;;;;;;;;;6063432;23;20292;-82
2024/04/02 11:51:13;;;;;;;0.30;0.30;;;;;;;;;;6040076;23;20200;-81
2024/04/02 11:53:41;;;;;;;0.10;0.10;;;;;;;;;;6062968;23;20179;-83
2024/04/02 11:56:07;;;;;;;0.60;0.13;;;;;;;;;;6039999;23;20197;-82
2024/04/02 12:01:18;;;;;;;0.20;0.20;;;;;;;;;;6040012;23;20175;-82
2024/04/02 12:03:48;;;;;;;0.30;0.20;;;;;;;;;;6039671;23;20203;-82
2024/04/02 12:06:15;;;;;;;1.00;0.30;;;;;;;;;;6040016;23;20262;-82
2024/04/02 12:08:42;;;;;;;1.17;0.30;;;;;;;;;;6062711;23;20215;-82
2024/04/02 12:11:08;;;;;;;0.27;0.27;;;;;;;;;;6039395;23;20189;-82
2024/04/02 12:13:34;;;;;;;0.20;0.20;;;;;;;;;;6062520;23;20169;-82
2024/04/02 12:16:00;;;;;;;0.30;0.20;;;;;;;;;;6015668;23;20621;-81
2024/04/02 12:18:32;;;;;;;0.30;0.30;;;;;;;;;;6016722;23;20200;-83
2024/04/02 12:20:59;;;;;;;0.33;0.20;;;;;;;;;;6063068;23;20192;-83
2024/04/02 12:23:25;;;;;;;0.70;0.37;;;;;;;;;;6015641;23;20169;-82
2024/04/02 12:25:55;;;;;;;0.20;0.20;;;;;;;;;;6039083;23;20179;-82
2024/04/02 12:28:30;;;;;;;0.20;0.20;;;;;;;;;;6039589;23;20168;-82
2024/04/02 12:31:01;;;;;;;0.33;0.20;;;;;;;;;;6063611;23;20173;-81
2024/04/02 12:33:27;;;;;;;0.63;0.30;;;;;;;;;;6039198;23;20168;-82
2024/04/02 12:35:54;;;;;;;0.20;0.20;;;;;;;;;;6015759;23;20205;-82
2024/04/02 12:38:20;;;;;;;0.23;0.23;;;;;;;;;;6063307;23;20173;-81
2024/04/02 12:40:46;;;;;;;0.80;0.20;;;;;;;;;;6039193;23;20231;-82
2024/04/02 12:43:13;;;;;;;0.50;0.20;;;;;;;;;;6015959;23;20216;-82
2024/04/02 12:45:48;;;;;;;0.37;0.20;;;;;;;;;;6038664;23;20292;-82
2024/04/02 12:48:14;;;;;;;0.20;0.20;;;;;;;;;;6063070;23;20161;-82
2024/04/02 12:50:48;;;;;;;0.20;0.13;;;;;;;;;;6039008;23;20284;-81
2024/04/02 12:53:15;;;;;;;0.33;0.10;;;;;;;;;;6039462;23;20149;-82
2024/04/02 12:55:44;;;;;;;0.50;0.20;;;;;;;;;;6039565;23;20180;-82
2024/04/02 12:58:10;;;;;;;0.30;0.20;;;;;;;;;;6039362;23;20169;-82
2024/04/02 13:00:39;;;;;;;0.73;0.20;;;;;;;;;;6039725;23;20196;-82
2024/04/02 13:03:05;;;;;;;0.30;0.30;;;;;;;;;;6016096;23;20825;-82
2024/04/02 13:05:40;;;;;;;0.30;0.20;;;;;;;;;;6040060;23;20276;-82
2024/04/02 13:08:07;;;;;;;0.37;0.17;;;;;;;;;;6016377;23;20169;-82
2024/04/02 13:10:44;;;;;;;0.30;0.20;;;;;;;;;;6015838;23;20251;-82
2024/04/02 13:13:11;;;;;;;0.87;0.20;;;;;;;;;;6040499;23;20588;-81
2024/04/02 13:15:38;;;;;;;0.30;0.30;;;;;;;;;;6039733;23;20634;-82
2024/04/02 13:18:04;;;;;;;0.37;0.20;;;;;;;;;;6015956;23;20788;-81
2024/04/02 13:20:31;;;;;;;0.20;0.20;;;;;;;;;;6015506;23;20204;-82
2024/04/02 13:22:59;;;;;;;0.10;0.10;;;;;;;;;;6015870;23;20199;-81
2024/04/02 13:25:25;;;;;;;0.10;0.10;;;;;;;;;;6016871;23;20197;-82
2024/04/02 13:27:52;;;;;;;0.10;0.10;;;;;;;;;;6017758;23;20193;-82
2024/04/02 13:30:20;;;;;;;0.20;0.20;;;;;;;;;;6041122;23;20197;-81
2024/04/02 13:32:47;;;;;;;0.40;0.20;;;;;;;;;;6041115;23;20181;-82
2024/04/02 13:35:17;;;;;;;0.57;0.20;;;;;;;;;;6040904;23;20189;-81
2024/04/02 13:37:44;;;;;;;0.10;0.10;;;;;;;;;;6045136;23;20231;-82
2024/04/02 13:40:15;;;;;;;0.63;0.20;;;;;;;;;;6022948;23;20179;-82
2024/04/02 13:42:43;;;;;;;0.13;0.10;;;;;;;;;;6069354;23;20196;-81
2024/04/02 13:45:10;;;;;;;1.60;0.20;;;;;;;;;;6020027;23;20639;-82
2024/04/02 13:47:36;;;;;;;0.10;0.10;;;;;;;;;;6020932;23;20276;-81
2024/04/02 13:50:07;;;;;;;0.10;0.10;;;;;;;;;;6046190;23;20694;-81
2024/04/02 13:52:34;;;;;;;0.20;0.10;;;;;;;;;;6069411;23;20177;-82
2024/04/02 13:55:01;;;;;;;0.43;0.20;;;;;;;;;;6045074;23;20192;-81
2024/04/02 13:57:28;;;;;;;0.40;0.30;;;;;;;;;;6021665;23;20183;-81
2024/04/02 13:59:54;;;;;;;0.87;0.20;;;;;;;;;;6020726;23;20255;-81
2024/04/02 14:02:24;;;;;;;0.30;0.20;;;;;;;;;;6023054;23;20173;-82
2024/04/02 14:04:55;;;;;;;0.20;0.20;;;;;;;;;;6045773;23;20222;-82
2024/04/02 14:07:23;;;;;;;0.20;0.10;;;;;;;;;;6069889;23;20202;-82
2024/04/02 14:09:49;;;;;;;0.10;0.10;;;;;;;;;;6045292;23;20176;-82
2024/04/02 14:12:18;;;;;;;0.50;0.20;;;;;;;;;;6021965;23;20169;-82
2024/04/02 14:14:45;;;;;;;0.33;0.30;;;;;;;;;;6069239;23;20165;-81
2024/04/02 14:17:11;;;;;;;0.23;0.20;;;;;;;;;;6044620;23;20184;-81
2024/04/02 14:19:37;;;;;;;1.13;0.10;;;;;;;;;;6067044;23;20223;-78
2024/04/02 14:22:04;;;;;;;0.20;0.17;;;;;;;;;;6067277;23;20173;-80
2024/04/02 14:24:30;;;;;;;0.10;0.10;;;;;;;;;;6066679;23;20202;-80
2024/04/02 14:26:59;;;;;;;0.80;0.20;;;;;;;;;;6066984;23;20652;-79
2024/04/02 14:29:25;;;;;;;0.30;0.30;;;;;;;;;;6066769;23;20164;-80
2024/04/02 14:31:51;;;;;;;0.77;0.20;;;;;;;;;;6066835;23;20173;-78
2024/04/02 14:34:17;;;;;;;0.30;0.30;;;;;;;;;;6066936;23;20173;-78
2024/04/02 14:36:52;;;;;;;1.17;0.20;;;;;;;;;;6061652;23;20268;-80
2024/04/02 14:39:20;;;;;;;0.13;0.10;;;;;;;;;;6062296;23;20191;-78
2024/04/02 14:41:49;;;;;;;1.10;0.20;;;;;;;;;;6062211;23;20170;-78
2024/04/02 14:44:16;;;;;;;0.30;0.20;;;;;;;;;;6061835;23;20192;-77
2024/04/02 14:46:43;;;;;;;0.80;0.10;;;;;;;;;;6085932;23;20197;-78
2024/04/02 14:49:09;;;;;;;1.13;0.10;;;;;;;;;;6062241;23;20244;-77
2024/04/02 14:51:37;;;;;;;0.67;0.10;;;;;;;;;;6062329;23;20173;-79